sensor_id;sensor_type;location;lat;lon;timestamp;P1;durP1;ratioP1;P2;durP2;ratioP2
32080;SDS011;18593;51.426;7.030;2022-09-24T00:01:35;12.93;;;7.93;;
32080;SDS011;18593;51.426;7.030;2022-09-24T00:04:04;17.00;;;8.95;;
32080;SDS011;18593;51.426;7.030;2022-09-24T00:06:33;12.50;;;7.68;;
32080;SDS011;18593;51.426;7.030;2022-09-24T00:09:01;14.68;;;8.13;;
32080;SDS011;18593;51.426;7.030;2022-09-24T00:11:29;12.85;;;8.20;;
32080;SDS011;18593;51.426;7.030;2022-09-24T00:13:57;13.68;;;8.20;;
32080;SDS011;18593;51.426;7.030;2022-09-24T00:16:27;14.48;;;8.38;;
32080;SDS011;18593;51.426;7.030;2022-09-24T00:18:58;14.10;;;8.35;;
32080;SDS011;18593;51.426;7.030;2022-09-24T00:21:26;14.05;;;8.48;;
32080;SDS011;18593;51.426;7.030;2022-09-24T00:23:54;13.00;;;7.82;;
32080;SDS011;18593;51.426;7.030;2022-09-24T00:26:23;14.48;;;8.30;;
32080;SDS011;18593;51.426;7.030;2022-09-24T00:29:08;19.02;;;9.07;;
32080;SDS011;18593;51.426;7.030;2022-09-24T00:31:38;17.05;;;8.82;;
32080;SDS011;18593;51.426;7.030;2022-09-24T00:34:05;15.30;;;9.20;;
32080;SDS011;18593;51.426;7.030;2022-09-24T00:36:32;14.27;;;9.55;;
32080;SDS011;18593;51.426;7.030;2022-09-24T00:38:59;16.33;;;8.75;;
32080;SDS011;18593;51.426;7.030;2022-09-24T00:41:26;15.73;;;9.35;;
32080;SDS011;18593;51.426;7.030;2022-09-24T00:43:55;16.67;;;9.40;;
32080;SDS011;18593;51.426;7.030;2022-09-24T00:46:23;17.38;;;9.23;;
32080;SDS011;18593;51.426;7.030;2022-09-24T00:48:53;15.82;;;8.20;;
32080;SDS011;18593;51.426;7.030;2022-09-24T00:51:22;12.73;;;8.10;;
32080;SDS011;18593;51.426;7.030;2022-09-24T00:53:51;15.75;;;8.40;;
32080;SDS011;18593;51.426;7.030;2022-09-24T00:56:21;12.20;;;7.28;;
32080;SDS011;18593;51.426;7.030;2022-09-24T00:58:49;12.68;;;7.60;;
32080;SDS011;18593;51.426;7.030;2022-09-24T01:01:18;14.82;;;7.80;;
32080;SDS011;18593;51.426;7.030;2022-09-24T01:03:46;12.05;;;8.15;;
32080;SDS011;18593;51.426;7.030;2022-09-24T01:06:15;13.75;;;8.38;;
32080;SDS011;18593;51.426;7.030;2022-09-24T01:08:42;14.85;;;8.80;;
32080;SDS011;18593;51.426;7.030;2022-09-24T01:11:12;21.85;;;9.68;;
32080;SDS011;18593;51.426;7.030;2022-09-24T01:14:07;21.98;;;10.55;;
32080;SDS011;18593;51.426;7.030;2022-09-24T01:16:52;16.42;;;9.43;;
32080;SDS011;18593;51.426;7.030;2022-09-24T01:19:33;20.35;;;9.77;;
32080;SDS011;18593;51.426;7.030;2022-09-24T01:22:21;21.92;;;9.90;;
32080;SDS011;18593;51.426;7.030;2022-09-24T01:24:57;14.73;;;9.18;;
32080;SDS011;18593;51.426;7.030;2022-09-24T01:30:02;16.75;;;10.05;;
32080;SDS011;18593;51.426;7.030;2022-09-24T01:32:32;16.88;;;11.07;;
32080;SDS011;18593;51.426;7.030;2022-09-24T01:35:04;17.60;;;10.68;;
32080;SDS011;18593;51.426;7.030;2022-09-24T01:40:00;16.55;;;11.73;;
32080;SDS011;18593;51.426;7.030;2022-09-24T01:42:29;19.88;;;11.95;;
32080;SDS011;18593;51.426;7.030;2022-09-24T01:44:56;17.63;;;12.15;;
32080;SDS011;18593;51.426;7.030;2022-09-24T01:47:28;18.55;;;12.07;;
32080;SDS011;18593;51.426;7.030;2022-09-24T01:49:56;19.65;;;11.25;;
32080;SDS011;18593;51.426;7.030;2022-09-24T01:52:24;17.90;;;10.35;;
32080;SDS011;18593;51.426;7.030;2022-09-24T01:54:54;14.48;;;10.23;;
32080;SDS011;18593;51.426;7.030;2022-09-24T01:57:23;15.50;;;9.82;;
32080;SDS011;18593;51.426;7.030;2022-09-24T01:59:51;16.08;;;10.23;;
32080;SDS011;18593;51.426;7.030;2022-09-24T02:02:21;19.60;;;10.35;;
32080;SDS011;18593;51.426;7.030;2022-09-24T02:04:55;17.05;;;9.98;;
32080;SDS011;18593;51.426;7.030;2022-09-24T02:07:26;20.17;;;9.75;;
32080;SDS011;18593;51.426;7.030;2022-09-24T02:10:00;15.35;;;10.52;;
32080;SDS011;18593;51.426;7.030;2022-09-24T02:12:28;17.25;;;9.98;;
32080;SDS011;18593;51.426;7.030;2022-09-24T02:14:57;22.67;;;10.57;;
32080;SDS011;18593;51.426;7.030;2022-09-24T02:17:26;19.83;;;10.95;;
32080;SDS011;18593;51.426;7.030;2022-09-24T02:19:59;17.80;;;11.23;;
32080;SDS011;18593;51.426;7.030;2022-09-24T02:22:26;15.57;;;10.57;;
32080;SDS011;18593;51.426;7.030;2022-09-24T02:24:55;21.75;;;12.02;;
32080;SDS011;18593;51.426;7.030;2022-09-24T02:27:23;18.48;;;11.10;;
32080;SDS011;18593;51.426;7.030;2022-09-24T02:29:52;16.30;;;10.10;;
32080;SDS011;18593;51.426;7.030;2022-09-24T02:32:19;19.48;;;11.85;;
32080;SDS011;18593;51.426;7.030;2022-09-24T02:34:48;20.80;;;12.35;;
32080;SDS011;18593;51.426;7.030;2022-09-24T02:37:20;19.88;;;12.30;;
32080;SDS011;18593;51.426;7.030;2022-09-24T02:39:48;17.30;;;12.73;;
32080;SDS011;18593;51.426;7.030;2022-09-24T02:42:15;21.88;;;12.77;;
32080;SDS011;18593;51.426;7.030;2022-09-24T05:00:39;17.30;;;10.68;;
32080;SDS011;18593;51.426;7.030;2022-09-24T05:03:11;20.80;;;11.25;;
32080;SDS011;18593;51.426;7.030;2022-09-24T05:05:37;19.02;;;10.95;;
32080;SDS011;18593;51.426;7.030;2022-09-24T05:08:04;17.48;;;10.77;;
32080;SDS011;18593;51.426;7.030;2022-09-24T05:10:31;17.55;;;11.18;;
32080;SDS011;18593;51.426;7.030;2022-09-24T05:12:58;16.13;;;10.25;;
32080;SDS011;18593;51.426;7.030;2022-09-24T05:15:26;22.33;;;10.77;;
32080;SDS011;18593;51.426;7.030;2022-09-24T05:17:54;16.35;;;10.93;;
32080;SDS011;18593;51.426;7.030;2022-09-24T05:20:21;15.98;;;10.88;;
32080;SDS011;18593;51.426;7.030;2022-09-24T05:22:48;17.55;;;10.98;;
32080;SDS011;18593;51.426;7.030;2022-09-24T05:25:16;19.33;;;11.60;;
32080;SDS011;18593;51.426;7.030;2022-09-24T05:27:44;17.30;;;12.25;;
32080;SDS011;18593;51.426;7.030;2022-09-24T05:30:11;26.45;;;12.25;;
32080;SDS011;18593;51.426;7.030;2022-09-24T05:32:41;18.15;;;12.10;;
32080;SDS011;18593;51.426;7.030;2022-09-24T05:35:26;19.80;;;12.45;;
32080;SDS011;18593;51.426;7.030;2022-09-24T05:38:08;18.15;;;11.82;;
32080;SDS011;18593;51.426;7.030;2022-09-24T05:40:42;22.70;;;12.23;;
32080;SDS011;18593;51.426;7.030;2022-09-24T05:43:14;17.67;;;11.52;;
32080;SDS011;18593;51.426;7.030;2022-09-24T05:45:43;20.77;;;12.30;;
32080;SDS011;18593;51.426;7.030;2022-09-24T05:48:10;20.80;;;11.85;;
32080;SDS011;18593;51.426;7.030;2022-09-24T05:50:39;21.23;;;12.85;;
32080;SDS011;18593;51.426;7.030;2022-09-24T05:53:06;21.27;;;13.23;;
32080;SDS011;18593;51.426;7.030;2022-09-24T05:55:35;17.65;;;11.93;;
32080;SDS011;18593;51.426;7.030;2022-09-24T05:58:03;17.38;;;12.32;;
32080;SDS011;18593;51.426;7.030;2022-09-24T06:00:30;22.35;;;12.57;;
32080;SDS011;18593;51.426;7.030;2022-09-24T06:03:04;19.33;;;11.88;;
32080;SDS011;18593;51.426;7.030;2022-09-24T06:05:33;19.05;;;12.48;;
32080;SDS011;18593;51.426;7.030;2022-09-24T06:08:02;16.73;;;11.45;;
32080;SDS011;18593;51.426;7.030;2022-09-24T06:10:29;19.63;;;12.57;;
32080;SDS011;18593;51.426;7.030;2022-09-24T06:12:56;18.52;;;11.60;;
32080;SDS011;18593;51.426;7.030;2022-09-24T06:15:23;17.08;;;11.45;;
32080;SDS011;18593;51.426;7.030;2022-09-24T06:17:51;19.42;;;12.40;;
32080;SDS011;18593;51.426;7.030;2022-09-24T06:20:19;19.33;;;12.02;;
32080;SDS011;18593;51.426;7.030;2022-09-24T06:22:46;23.70;;;12.43;;
32080;SDS011;18593;51.426;7.030;2022-09-24T06:25:14;18.83;;;11.90;;
32080;SDS011;18593;51.426;7.030;2022-09-24T06:27:41;17.60;;;12.10;;
32080;SDS011;18593;51.426;7.030;2022-09-24T06:30:08;25.10;;;13.18;;
32080;SDS011;18593;51.426;7.030;2022-09-24T06:32:37;22.08;;;12.73;;
32080;SDS011;18593;51.426;7.030;2022-09-24T06:35:04;21.23;;;12.95;;
32080;SDS011;18593;51.426;7.030;2022-09-24T06:37:31;21.13;;;13.00;;
32080;SDS011;18593;51.426;7.030;2022-09-24T06:39:58;21.33;;;13.10;;
32080;SDS011;18593;51.426;7.030;2022-09-24T06:42:26;17.83;;;12.05;;
32080;SDS011;18593;51.426;7.030;2022-09-24T06:44:55;20.75;;;12.27;;
32080;SDS011;18593;51.426;7.030;2022-09-24T06:47:21;20.65;;;11.80;;
32080;SDS011;18593;51.426;7.030;2022-09-24T06:49:49;25.77;;;13.45;;
32080;SDS011;18593;51.426;7.030;2022-09-24T06:52:16;22.75;;;13.13;;
32080;SDS011;18593;51.426;7.030;2022-09-24T06:54:42;17.98;;;12.68;;
32080;SDS011;18593;51.426;7.030;2022-09-24T06:57:09;21.38;;;14.07;;
32080;SDS011;18593;51.426;7.030;2022-09-24T06:59:38;25.42;;;17.00;;
32080;SDS011;18593;51.426;7.030;2022-09-24T07:02:06;30.80;;;17.92;;
32080;SDS011;18593;51.426;7.030;2022-09-24T07:04:34;28.98;;;17.48;;
32080;SDS011;18593;51.426;7.030;2022-09-24T07:07:03;27.35;;;16.80;;
32080;SDS011;18593;51.426;7.030;2022-09-24T07:09:48;29.73;;;17.63;;
32080;SDS011;18593;51.426;7.030;2022-09-24T07:12:15;27.65;;;17.95;;
32080;SDS011;18593;51.426;7.030;2022-09-24T07:14:43;29.35;;;16.58;;
32080;SDS011;18593;51.426;7.030;2022-09-24T07:17:10;30.35;;;17.33;;
32080;SDS011;18593;51.426;7.030;2022-09-24T07:19:37;27.92;;;16.88;;
32080;SDS011;18593;51.426;7.030;2022-09-24T07:22:04;27.88;;;17.05;;
32080;SDS011;18593;51.426;7.030;2022-09-24T07:24:30;27.48;;;16.15;;
32080;SDS011;18593;51.426;7.030;2022-09-24T07:26:58;37.72;;;16.52;;
32080;SDS011;18593;51.426;7.030;2022-09-24T07:29:24;30.55;;;17.15;;
32080;SDS011;18593;51.426;7.030;2022-09-24T07:31:53;30.55;;;17.60;;
32080;SDS011;18593;51.426;7.030;2022-09-24T07:34:20;29.90;;;16.95;;
32080;SDS011;18593;51.426;7.030;2022-09-24T07:36:47;30.55;;;17.83;;
32080;SDS011;18593;51.426;7.030;2022-09-24T07:39:14;28.83;;;16.42;;
32080;SDS011;18593;51.426;7.030;2022-09-24T07:41:41;27.45;;;15.85;;
32080;SDS011;18593;51.426;7.030;2022-09-24T07:44:10;24.83;;;14.50;;
32080;SDS011;18593;51.426;7.030;2022-09-24T07:46:37;24.88;;;15.30;;
32080;SDS011;18593;51.426;7.030;2022-09-24T07:49:06;28.98;;;15.90;;
32080;SDS011;18593;51.426;7.030;2022-09-24T07:51:32;28.10;;;15.55;;
32080;SDS011;18593;51.426;7.030;2022-09-24T07:54:00;24.30;;;14.88;;
32080;SDS011;18593;51.426;7.030;2022-09-24T07:56:27;24.83;;;14.73;;
32080;SDS011;18593;51.426;7.030;2022-09-24T07:58:54;22.65;;;14.55;;
32080;SDS011;18593;51.426;7.030;2022-09-24T08:01:21;27.48;;;16.13;;
32080;SDS011;18593;51.426;7.030;2022-09-24T08:03:49;25.08;;;16.02;;
32080;SDS011;18593;51.426;7.030;2022-09-24T08:06:18;25.17;;;16.27;;
32080;SDS011;18593;51.426;7.030;2022-09-24T08:08:47;29.58;;;15.77;;
32080;SDS011;18593;51.426;7.030;2022-09-24T08:11:14;23.92;;;14.25;;
32080;SDS011;18593;51.426;7.030;2022-09-24T08:13:42;22.38;;;14.48;;
32080;SDS011;18593;51.426;7.030;2022-09-24T08:16:09;23.17;;;14.60;;
32080;SDS011;18593;51.426;7.030;2022-09-24T08:18:37;22.80;;;13.77;;
32080;SDS011;18593;51.426;7.030;2022-09-24T08:21:04;23.92;;;14.18;;
32080;SDS011;18593;51.426;7.030;2022-09-24T08:23:34;20.83;;;13.40;;
32080;SDS011;18593;51.426;7.030;2022-09-24T08:26:02;25.25;;;14.45;;
32080;SDS011;18593;51.426;7.030;2022-09-24T08:28:29;24.25;;;14.73;;
32080;SDS011;18593;51.426;7.030;2022-09-24T08:30:56;23.90;;;15.00;;
32080;SDS011;18593;51.426;7.030;2022-09-24T08:33:24;22.88;;;14.18;;
32080;SDS011;18593;51.426;7.030;2022-09-24T08:35:51;25.67;;;15.23;;
32080;SDS011;18593;51.426;7.030;2022-09-24T08:38:18;22.52;;;13.77;;
32080;SDS011;18593;51.426;7.030;2022-09-24T08:40:51;23.70;;;14.07;;
32080;SDS011;18593;51.426;7.030;2022-09-24T08:45:56;22.27;;;13.88;;
32080;SDS011;18593;51.426;7.030;2022-09-24T08:48:43;21.42;;;13.73;;
32080;SDS011;18593;51.426;7.030;2022-09-24T08:51:12;23.90;;;13.65;;
32080;SDS011;18593;51.426;7.030;2022-09-24T08:53:43;23.65;;;13.50;;
32080;SDS011;18593;51.426;7.030;2022-09-24T08:56:17;17.27;;;12.02;;
32080;SDS011;18593;51.426;7.030;2022-09-24T08:58:47;21.90;;;12.25;;
32080;SDS011;18593;51.426;7.030;2022-09-24T09:01:20;19.90;;;11.93;;
32080;SDS011;18593;51.426;7.030;2022-09-24T09:03:54;18.98;;;11.20;;
32080;SDS011;18593;51.426;7.030;2022-09-24T09:06:29;16.60;;;11.45;;
32080;SDS011;18593;51.426;7.030;2022-09-24T09:09:08;17.85;;;12.00;;
32080;SDS011;18593;51.426;7.030;2022-09-24T09:11:39;19.65;;;12.27;;
32080;SDS011;18593;51.426;7.030;2022-09-24T09:14:08;19.80;;;11.88;;
32080;SDS011;18593;51.426;7.030;2022-09-24T09:16:40;19.10;;;11.63;;
32080;SDS011;18593;51.426;7.030;2022-09-24T09:19:11;20.73;;;11.65;;
32080;SDS011;18593;51.426;7.030;2022-09-24T09:21:40;17.27;;;11.63;;
32080;SDS011;18593;51.426;7.030;2022-09-24T09:24:11;17.90;;;11.43;;
32080;SDS011;18593;51.426;7.030;2022-09-24T09:26:45;18.90;;;12.32;;
32080;SDS011;18593;51.426;7.030;2022-09-24T09:29:13;19.60;;;12.13;;
32080;SDS011;18593;51.426;7.030;2022-09-24T09:31:42;19.90;;;12.38;;
32080;SDS011;18593;51.426;7.030;2022-09-24T09:34:20;19.85;;;12.65;;
32080;SDS011;18593;51.426;7.030;2022-09-24T09:36:59;18.40;;;11.68;;
32080;SDS011;18593;51.426;7.030;2022-09-24T09:39:34;16.80;;;11.00;;
32080;SDS011;18593;51.426;7.030;2022-09-24T09:42:14;17.88;;;10.60;;
32080;SDS011;18593;51.426;7.030;2022-09-24T09:44:47;18.42;;;11.18;;
32080;SDS011;18593;51.426;7.030;2022-09-24T09:47:16;18.00;;;11.15;;
32080;SDS011;18593;51.426;7.030;2022-09-24T09:49:47;16.90;;;11.07;;
32080;SDS011;18593;51.426;7.030;2022-09-24T09:52:18;13.00;;;9.30;;
32080;SDS011;18593;51.426;7.030;2022-09-24T09:54:46;17.95;;;11.23;;
32080;SDS011;18593;51.426;7.030;2022-09-24T09:57:15;19.13;;;11.52;;
32080;SDS011;18593;51.426;7.030;2022-09-24T09:59:47;17.60;;;11.30;;
32080;SDS011;18593;51.426;7.030;2022-09-24T10:02:21;19.98;;;11.95;;
32080;SDS011;18593;51.426;7.030;2022-09-24T10:04:51;25.45;;;11.55;;
32080;SDS011;18593;51.426;7.030;2022-09-24T10:07:19;16.70;;;10.40;;
32080;SDS011;18593;51.426;7.030;2022-09-24T10:09:46;19.63;;;11.05;;
32080;SDS011;18593;51.426;7.030;2022-09-24T10:12:25;14.57;;;10.18;;
32080;SDS011;18593;51.426;7.030;2022-09-24T10:14:56;17.95;;;10.68;;
32080;SDS011;18593;51.426;7.030;2022-09-24T10:17:27;14.93;;;9.82;;
32080;SDS011;18593;51.426;7.030;2022-09-24T10:22:23;13.48;;;8.50;;
32080;SDS011;18593;51.426;7.030;2022-09-24T10:24:52;14.23;;;8.88;;
32080;SDS011;18593;51.426;7.030;2022-09-24T10:27:21;11.38;;;7.95;;
32080;SDS011;18593;51.426;7.030;2022-09-24T10:29:57;12.23;;;8.13;;
32080;SDS011;18593;51.426;7.030;2022-09-24T10:32:41;14.25;;;9.05;;
32080;SDS011;18593;51.426;7.030;2022-09-24T10:35:18;14.18;;;7.93;;
32080;SDS011;18593;51.426;7.030;2022-09-24T10:37:51;14.02;;;8.35;;
32080;SDS011;18593;51.426;7.030;2022-09-24T10:40:19;11.93;;;7.68;;
32080;SDS011;18593;51.426;7.030;2022-09-24T10:42:57;12.35;;;7.68;;
32080;SDS011;18593;51.426;7.030;2022-09-24T10:45:30;12.27;;;8.52;;
32080;SDS011;18593;51.426;7.030;2022-09-24T10:48:20;13.30;;;7.97;;
32080;SDS011;18593;51.426;7.030;2022-09-24T10:50:50;13.68;;;8.30;;
32080;SDS011;18593;51.426;7.030;2022-09-24T10:53:26;12.85;;;7.47;;
32080;SDS011;18593;51.426;7.030;2022-09-24T10:56:00;14.75;;;8.35;;
32080;SDS011;18593;51.426;7.030;2022-09-24T10:58:40;13.57;;;8.93;;
32080;SDS011;18593;51.426;7.030;2022-09-24T11:01:16;12.27;;;8.88;;
32080;SDS011;18593;51.426;7.030;2022-09-24T11:03:50;12.40;;;8.13;;
32080;SDS011;18593;51.426;7.030;2022-09-24T11:06:24;14.60;;;9.27;;
32080;SDS011;18593;51.426;7.030;2022-09-24T11:09:04;21.13;;;10.38;;
32080;SDS011;18593;51.426;7.030;2022-09-24T11:11:40;14.50;;;9.52;;
32080;SDS011;18593;51.426;7.030;2022-09-24T11:14:21;14.23;;;8.98;;
32080;SDS011;18593;51.426;7.030;2022-09-24T11:16:57;13.10;;;8.95;;
32080;SDS011;18593;51.426;7.030;2022-09-24T11:19:44;12.50;;;8.70;;
32080;SDS011;18593;51.426;7.030;2022-09-24T11:22:21;16.23;;;9.75;;
32080;SDS011;18593;51.426;7.030;2022-09-24T11:25:05;14.82;;;10.50;;
32080;SDS011;18593;51.426;7.030;2022-09-24T11:27:47;15.57;;;10.88;;
32080;SDS011;18593;51.426;7.030;2022-09-24T11:30:23;15.38;;;10.38;;
32080;SDS011;18593;51.426;7.030;2022-09-24T11:32:57;17.10;;;11.50;;
32080;SDS011;18593;51.426;7.030;2022-09-24T11:35:31;14.38;;;10.60;;
32080;SDS011;18593;51.426;7.030;2022-09-24T11:38:08;16.25;;;10.35;;
32080;SDS011;18593;51.426;7.030;2022-09-24T11:40:47;18.13;;;10.05;;
32080;SDS011;18593;51.426;7.030;2022-09-24T11:43:32;14.57;;;10.45;;
32080;SDS011;18593;51.426;7.030;2022-09-24T11:46:13;16.10;;;11.57;;
32080;SDS011;18593;51.426;7.030;2022-09-24T11:48:50;18.08;;;12.13;;
32080;SDS011;18593;51.426;7.030;2022-09-24T11:51:32;16.05;;;11.60;;
32080;SDS011;18593;51.426;7.030;2022-09-24T11:54:07;18.10;;;12.63;;
32080;SDS011;18593;51.426;7.030;2022-09-24T11:56:41;18.17;;;11.70;;
32080;SDS011;18593;51.426;7.030;2022-09-24T11:59:12;17.75;;;12.20;;
32080;SDS011;18593;51.426;7.030;2022-09-24T12:01:44;18.33;;;12.55;;
32080;SDS011;18593;51.426;7.030;2022-09-24T12:04:14;19.15;;;12.40;;
32080;SDS011;18593;51.426;7.030;2022-09-24T12:06:45;19.30;;;11.80;;
32080;SDS011;18593;51.426;7.030;2022-09-24T12:09:18;20.67;;;12.75;;
32080;SDS011;18593;51.426;7.030;2022-09-24T12:11:48;18.80;;;12.45;;
32080;SDS011;18593;51.426;7.030;2022-09-24T12:14:18;17.92;;;11.38;;
32080;SDS011;18593;51.426;7.030;2022-09-24T12:16:50;17.70;;;11.27;;
32080;SDS011;18593;51.426;7.030;2022-09-24T12:19:19;16.40;;;10.52;;
32080;SDS011;18593;51.426;7.030;2022-09-24T12:21:49;15.82;;;10.10;;
32080;SDS011;18593;51.426;7.030;2022-09-24T12:24:26;15.00;;;9.50;;
32080;SDS011;18593;51.426;7.030;2022-09-24T12:26:55;14.90;;;8.60;;
32080;SDS011;18593;51.426;7.030;2022-09-24T12:29:29;16.00;;;8.18;;
32080;SDS011;18593;51.426;7.030;2022-09-24T12:32:20;14.25;;;8.13;;
32080;SDS011;18593;51.426;7.030;2022-09-24T12:35:10;12.00;;;7.97;;
32080;SDS011;18593;51.426;7.030;2022-09-24T12:37:44;13.40;;;7.65;;
32080;SDS011;18593;51.426;7.030;2022-09-24T12:40:16;13.27;;;7.28;;
32080;SDS011;18593;51.426;7.030;2022-09-24T12:42:53;11.23;;;6.65;;
32080;SDS011;18593;51.426;7.030;2022-09-24T12:45:22;12.13;;;6.75;;
32080;SDS011;18593;51.426;7.030;2022-09-24T12:47:52;10.07;;;6.25;;
32080;SDS011;18593;51.426;7.030;2022-09-24T12:50:22;13.48;;;6.93;;
32080;SDS011;18593;51.426;7.030;2022-09-24T12:52:51;9.68;;;6.40;;
32080;SDS011;18593;51.426;7.030;2022-09-24T12:55:20;9.98;;;6.80;;
32080;SDS011;18593;51.426;7.030;2022-09-24T12:57:48;11.88;;;6.97;;
32080;SDS011;18593;51.426;7.030;2022-09-24T13:00:33;10.98;;;6.97;;
32080;SDS011;18593;51.426;7.030;2022-09-24T13:03:04;14.25;;;6.72;;
32080;SDS011;18593;51.426;7.030;2022-09-24T13:05:32;14.30;;;6.78;;
32080;SDS011;18593;51.426;7.030;2022-09-24T13:08:01;10.25;;;6.90;;
32080;SDS011;18593;51.426;7.030;2022-09-24T13:10:29;9.13;;;6.30;;
32080;SDS011;18593;51.426;7.030;2022-09-24T13:12:57;11.20;;;6.78;;
32080;SDS011;18593;51.426;7.030;2022-09-24T13:15:27;10.23;;;6.45;;
32080;SDS011;18593;51.426;7.030;2022-09-24T13:18:16;10.75;;;6.63;;
32080;SDS011;18593;51.426;7.030;2022-09-24T13:20:55;15.20;;;7.68;;
32080;SDS011;18593;51.426;7.030;2022-09-24T13:23:29;11.85;;;8.27;;
32080;SDS011;18593;51.426;7.030;2022-09-24T13:26:11;12.80;;;7.85;;
32080;SDS011;18593;51.426;7.030;2022-09-24T13:28:49;11.00;;;7.65;;
32080;SDS011;18593;51.426;7.030;2022-09-24T13:31:21;13.63;;;9.23;;
32080;SDS011;18593;51.426;7.030;2022-09-24T13:33:54;12.32;;;7.90;;
32080;SDS011;18593;51.426;7.030;2022-09-24T13:36:24;14.82;;;8.23;;
32080;SDS011;18593;51.426;7.030;2022-09-24T13:38:56;12.95;;;8.50;;
32080;SDS011;18593;51.426;7.030;2022-09-24T13:41:39;17.27;;;9.82;;
32080;SDS011;18593;51.426;7.030;2022-09-24T13:44:10;15.90;;;9.15;;
32080;SDS011;18593;51.426;7.030;2022-09-24T13:46:42;15.90;;;9.80;;
32080;SDS011;18593;51.426;7.030;2022-09-24T13:49:12;14.20;;;9.23;;
32080;SDS011;18593;51.426;7.030;2022-09-24T13:51:43;15.45;;;9.57;;
32080;SDS011;18593;51.426;7.030;2022-09-24T13:54:13;16.52;;;9.52;;
32080;SDS011;18593;51.426;7.030;2022-09-24T13:56:42;14.32;;;9.25;;
32080;SDS011;18593;51.426;7.030;2022-09-24T13:59:22;16.50;;;8.70;;
32080;SDS011;18593;51.426;7.030;2022-09-24T14:01:49;15.85;;;9.63;;
32080;SDS011;18593;51.426;7.030;2022-09-24T14:04:18;13.40;;;9.48;;
32080;SDS011;18593;51.426;7.030;2022-09-24T14:06:47;13.50;;;9.50;;
32080;SDS011;18593;51.426;7.030;2022-09-24T14:09:26;12.00;;;8.43;;
32080;SDS011;18593;51.426;7.030;2022-09-24T14:11:54;13.32;;;8.55;;
32080;SDS011;18593;51.426;7.030;2022-09-24T14:14:23;15.25;;;9.55;;
32080;SDS011;18593;51.426;7.030;2022-09-24T14:16:52;16.48;;;10.88;;
32080;SDS011;18593;51.426;7.030;2022-09-24T14:19:21;16.48;;;11.40;;
32080;SDS011;18593;51.426;7.030;2022-09-24T14:21:48;18.05;;;10.48;;
32080;SDS011;18593;51.426;7.030;2022-09-24T14:24:17;15.13;;;10.40;;
32080;SDS011;18593;51.426;7.030;2022-09-24T14:26:47;15.82;;;10.52;;
32080;SDS011;18593;51.426;7.030;2022-09-24T14:29:16;15.93;;;10.75;;
32080;SDS011;18593;51.426;7.030;2022-09-24T14:31:46;16.73;;;11.77;;
32080;SDS011;18593;51.426;7.030;2022-09-24T14:34:19;16.33;;;11.02;;
32080;SDS011;18593;51.426;7.030;2022-09-24T14:36:51;19.13;;;11.98;;
32080;SDS011;18593;51.426;7.030;2022-09-24T14:39:19;18.00;;;11.52;;
32080;SDS011;18593;51.426;7.030;2022-09-24T14:41:49;21.42;;;12.02;;
32080;SDS011;18593;51.426;7.030;2022-09-24T14:44:19;93.75;;;32.28;;
32080;SDS011;18593;51.426;7.030;2022-09-24T14:46:48;70.63;;;29.67;;
32080;SDS011;18593;51.426;7.030;2022-09-24T14:49:17;93.45;;;33.85;;
32080;SDS011;18593;51.426;7.030;2022-09-24T14:51:53;47.35;;;20.52;;
32080;SDS011;18593;51.426;7.030;2022-09-24T14:54:30;69.97;;;29.45;;
32080;SDS011;18593;51.426;7.030;2022-09-24T14:57:08;67.93;;;28.08;;
32080;SDS011;18593;51.426;7.030;2022-09-24T14:59:36;39.53;;;19.70;;
32080;SDS011;18593;51.426;7.030;2022-09-24T15:02:11;112.80;;;27.67;;
32080;SDS011;18593;51.426;7.030;2022-09-24T15:04:42;25.25;;;13.60;;
32080;SDS011;18593;51.426;7.030;2022-09-24T15:07:14;24.10;;;13.70;;
32080;SDS011;18593;51.426;7.030;2022-09-24T15:09:46;20.63;;;12.77;;
32080;SDS011;18593;51.426;7.030;2022-09-24T15:12:16;16.92;;;12.07;;
32080;SDS011;18593;51.426;7.030;2022-09-24T15:14:52;18.35;;;11.80;;
32080;SDS011;18593;51.426;7.030;2022-09-24T15:17:20;19.02;;;12.80;;
32080;SDS011;18593;51.426;7.030;2022-09-24T15:19:49;18.23;;;12.35;;
32080;SDS011;18593;51.426;7.030;2022-09-24T15:22:20;17.23;;;12.00;;
32080;SDS011;18593;51.426;7.030;2022-09-24T15:24:47;17.52;;;12.05;;
32080;SDS011;18593;51.426;7.030;2022-09-24T15:27:14;17.83;;;12.23;;
32080;SDS011;18593;51.426;7.030;2022-09-24T15:29:44;18.13;;;13.00;;
32080;SDS011;18593;51.426;7.030;2022-09-24T15:32:13;19.25;;;13.88;;
32080;SDS011;18593;51.426;7.030;2022-09-24T15:34:41;18.23;;;13.60;;
32080;SDS011;18593;51.426;7.030;2022-09-24T15:37:09;18.00;;;13.35;;
32080;SDS011;18593;51.426;7.030;2022-09-24T15:39:39;21.05;;;14.82;;
32080;SDS011;18593;51.426;7.030;2022-09-24T15:42:12;19.90;;;14.25;;
32080;SDS011;18593;51.426;7.030;2022-09-24T15:44:39;19.70;;;14.13;;
32080;SDS011;18593;51.426;7.030;2022-09-24T15:47:09;19.52;;;13.30;;
32080;SDS011;18593;51.426;7.030;2022-09-24T15:49:36;18.23;;;13.23;;
32080;SDS011;18593;51.426;7.030;2022-09-24T15:52:05;20.30;;;13.75;;
32080;SDS011;18593;51.426;7.030;2022-09-24T15:54:33;18.77;;;13.35;;
32080;SDS011;18593;51.426;7.030;2022-09-24T15:57:01;18.80;;;13.05;;
32080;SDS011;18593;51.426;7.030;2022-09-24T15:59:28;18.75;;;13.25;;
32080;SDS011;18593;51.426;7.030;2022-09-24T16:01:56;19.48;;;13.95;;
32080;SDS011;18593;51.426;7.030;2022-09-24T16:04:26;18.88;;;13.27;;
32080;SDS011;18593;51.426;7.030;2022-09-24T16:06:53;18.67;;;13.45;;
32080;SDS011;18593;51.426;7.030;2022-09-24T16:09:20;20.75;;;14.10;;
32080;SDS011;18593;51.426;7.030;2022-09-24T16:11:47;19.60;;;13.85;;
32080;SDS011;18593;51.426;7.030;2022-09-24T16:14:15;19.02;;;14.00;;
32080;SDS011;18593;51.426;7.030;2022-09-24T16:16:42;20.05;;;14.70;;
32080;SDS011;18593;51.426;7.030;2022-09-24T16:19:09;20.90;;;15.10;;
32080;SDS011;18593;51.426;7.030;2022-09-24T16:21:36;20.65;;;14.95;;
32080;SDS011;18593;51.426;7.030;2022-09-24T16:24:03;20.95;;;14.00;;
32080;SDS011;18593;51.426;7.030;2022-09-24T16:26:30;18.75;;;13.88;;
32080;SDS011;18593;51.426;7.030;2022-09-24T16:29:00;20.00;;;13.45;;
32080;SDS011;18593;51.426;7.030;2022-09-24T16:31:28;20.45;;;14.20;;
32080;SDS011;18593;51.426;7.030;2022-09-24T16:33:58;20.50;;;14.30;;
32080;SDS011;18593;51.426;7.030;2022-09-24T16:36:25;19.35;;;14.13;;
32080;SDS011;18593;51.426;7.030;2022-09-24T16:38:52;21.05;;;14.73;;
32080;SDS011;18593;51.426;7.030;2022-09-24T16:41:19;20.67;;;14.05;;
32080;SDS011;18593;51.426;7.030;2022-09-24T16:43:46;18.95;;;14.23;;
32080;SDS011;18593;51.426;7.030;2022-09-24T16:46:13;21.08;;;14.32;;
32080;SDS011;18593;51.426;7.030;2022-09-24T16:48:41;19.30;;;14.50;;
32080;SDS011;18593;51.426;7.030;2022-09-24T16:51:09;20.15;;;14.60;;
32080;SDS011;18593;51.426;7.030;2022-09-24T16:53:36;22.98;;;15.85;;
32080;SDS011;18593;51.426;7.030;2022-09-24T16:56:07;22.48;;;15.70;;
32080;SDS011;18593;51.426;7.030;2022-09-24T16:58:37;25.38;;;15.40;;
32080;SDS011;18593;51.426;7.030;2022-09-24T17:01:05;21.55;;;15.25;;
32080;SDS011;18593;51.426;7.030;2022-09-24T17:03:32;22.00;;;14.95;;
32080;SDS011;18593;51.426;7.030;2022-09-24T17:06:00;21.48;;;15.30;;
32080;SDS011;18593;51.426;7.030;2022-09-24T17:08:29;21.73;;;15.65;;
32080;SDS011;18593;51.426;7.030;2022-09-24T17:11:10;23.20;;;15.40;;
32080;SDS011;18593;51.426;7.030;2022-09-24T17:13:37;20.20;;;15.43;;